Time;durP1;ratioP1;P1;durP2;ratioP2;P2;SDS_P1;SDS_P2;PMS_P1;PMS_P2;Temp;Humidity;BMP_temperature;BMP_pressure;BME280_temperature;BME280_humidity;BME280_pressure;Samples;Min_cycle;Max_cycle;Signal;HPM_P1;HPM_P2
2021/10/24 00:00:48;;;;;;;12.43;7.05;;;7.40;83.00;;;;;;5007829;28;20110;-72
2021/10/24 00:03:14;;;;;;;11.82;7.07;;;7.30;83.10;;;;;;4998946;28;20048;-73
2021/10/24 00:05:39;;;;;;;13.38;7.53;;;7.30;83.10;;;;;;5001851;28;20109;-78
2021/10/24 00:08:05;;;;;;;9.55;6.25;;;7.30;83.10;;;;;;5006364;28;20080;-73
2021/10/24 00:10:31;;;;;;;10.27;6.93;;;7.30;83.10;;;;;;5005022;28;20049;-78
2021/10/24 00:12:57;;;;;;;10.35;6.15;;;7.30;83.00;;;;;;5005718;28;20038;-72
2021/10/24 00:15:23;;;;;;;10.02;6.22;;;7.30;82.90;;;;;;5005994;28;20056;-73
2021/10/24 00:17:49;;;;;;;9.38;6.55;;;7.30;82.90;;;;;;5004082;28;20038;-73
2021/10/24 00:20:14;;;;;;;11.90;6.88;;;7.20;83.00;;;;;;5001948;28;20112;-76
2021/10/24 00:22:40;;;;;;;10.07;6.65;;;7.20;83.00;;;;;;5006954;28;20042;-74
2021/10/24 00:25:07;;;;;;;10.45;6.93;;;7.20;82.70;;;;;;5004959;28;20062;-72
2021/10/24 00:27:33;;;;;;;12.52;8.27;;;7.10;82.70;;;;;;5006212;28;20500;-73
2021/10/24 00:29:58;;;;;;;11.88;7.80;;;7.10;82.80;;;;;;5004345;28;20077;-72
2021/10/24 00:32:24;;;;;;;11.23;6.75;;;7.10;82.90;;;;;;5006703;28;20503;-75
2021/10/24 00:34:50;;;;;;;10.27;6.15;;;7.00;82.90;;;;;;5004404;28;20038;-72
2021/10/24 00:37:16;;;;;;;9.90;6.25;;;6.90;82.90;;;;;;5006938;28;20061;-74
2021/10/24 00:39:41;;;;;;;9.63;6.47;;;6.90;82.90;;;;;;5004296;28;20049;-73
2021/10/24 00:42:07;;;;;;;11.85;6.55;;;6.80;83.00;;;;;;5003867;28;20088;-76
2021/10/24 00:44:33;;;;;;;10.98;6.55;;;6.80;83.10;;;;;;5006475;28;20120;-72
2021/10/24 00:47:01;;;;;;;9.75;6.43;;;6.70;83.30;;;;;;5003977;28;20129;-73
2021/10/24 00:49:27;;;;;;;9.68;6.40;;;6.70;83.50;;;;;;5005470;28;20030;-74
2021/10/24 00:51:54;;;;;;;10.55;6.72;;;6.60;83.70;;;;;;5005446;28;20052;-72
2021/10/24 00:54:22;;;;;;;11.20;6.85;;;6.60;83.90;;;;;;5003865;28;20026;-72
2021/10/24 00:56:50;;;;;;;10.52;6.45;;;6.50;84.10;;;;;;5003174;28;20026;-74
2021/10/24 00:59:17;;;;;;;11.65;7.07;;;6.50;84.10;;;;;;5013035;28;20030;-73
2021/10/24 01:01:43;;;;;;;9.88;6.22;;;6.40;84.30;;;;;;5010000;28;20045;-73
2021/10/24 01:04:09;;;;;;;10.93;6.70;;;6.40;84.40;;;;;;5009957;28;20118;-73
2021/10/24 01:06:36;;;;;;;9.82;6.20;;;6.30;84.50;;;;;;5022797;28;20117;-73
2021/10/24 01:09:07;;;;;;;12.77;7.28;;;6.20;84.60;;;;;;5010972;28;20469;-72
2021/10/24 01:11:34;;;;;;;13.23;6.95;;;6.20;84.70;;;;;;5005785;28;20041;-75
2021/10/24 01:13:59;;;;;;;11.55;7.22;;;6.10;84.80;;;;;;5010664;28;20041;-72
2021/10/24 01:16:26;;;;;;;10.95;7.00;;;6.10;85.00;;;;;;5010122;28;20046;-72
2021/10/24 01:18:52;;;;;;;10.00;7.07;;;6.10;85.20;;;;;;5013257;28;20412;-72
2021/10/24 01:21:19;;;;;;;13.20;7.68;;;6.00;85.40;;;;;;5007593;28;20034;-72
2021/10/24 01:23:45;;;;;;;12.63;7.43;;;6.00;85.50;;;;;;5008756;28;20092;-74
2021/10/24 01:26:11;;;;;;;10.98;7.00;;;6.00;85.50;;;;;;5006670;28;20034;-73
2021/10/24 01:28:37;;;;;;;13.35;7.38;;;6.00;85.60;;;;;;5011846;28;20034;-73
2021/10/24 01:31:02;;;;;;;12.73;7.55;;;6.00;85.60;;;;;;5009703;28;20030;-72
2021/10/24 01:33:29;;;;;;;11.57;7.57;;;6.00;85.70;;;;;;5004652;28;20034;-75
2021/10/24 01:35:57;;;;;;;13.20;7.70;;;6.00;85.70;;;;;;5020069;28;20461;-76
2021/10/24 01:38:24;;;;;;;11.52;7.53;;;5.90;85.70;;;;;;5006662;28;20470;-72
2021/10/24 01:40:52;;;;;;;10.95;7.88;;;5.90;85.80;;;;;;5007503;28;20140;-72
2021/10/24 01:43:19;;;;;;;10.63;7.25;;;5.80;85.80;;;;;;5006937;28;20046;-73
2021/10/24 01:45:45;;;;;;;12.77;7.57;;;5.80;85.90;;;;;;5010554;28;20531;-72
2021/10/24 01:48:13;;;;;;;11.68;7.65;;;5.80;85.90;;;;;;5003586;28;20125;-73
2021/10/24 01:50:39;;;;;;;16.23;7.50;;;5.70;86.00;;;;;;5009575;28;20069;-72
2021/10/24 01:53:05;;;;;;;11.00;7.82;;;5.70;86.20;;;;;;5003883;28;20030;-72
2021/10/24 01:55:32;;;;;;;11.82;7.63;;;5.70;86.20;;;;;;5008632;28;20049;-73
2021/10/24 01:57:58;;;;;;;10.88;8.25;;;5.70;86.20;;;;;;5008332;28;20045;-76
2021/10/24 02:00:24;;;;;;;9.93;7.20;;;5.60;86.20;;;;;;5001485;28;20853;-73
2021/10/24 02:02:51;;;;;;;12.30;7.72;;;5.60;86.30;;;;;;5007272;28;20501;-76
2021/10/24 02:05:17;;;;;;;14.02;8.15;;;5.60;86.20;;;;;;5008463;28;20029;-72
2021/10/24 02:07:42;;;;;;;12.05;8.57;;;5.60;86.00;;;;;;5009270;28;20111;-73
2021/10/24 02:10:11;;;;;;;12.32;8.02;;;5.50;86.00;;;;;;5001509;28;20113;-74
2021/10/24 02:12:37;;;;;;;10.73;7.55;;;5.50;86.30;;;;;;5001931;28;20140;-73
2021/10/24 02:15:06;;;;;;;12.43;8.80;;;5.50;86.50;;;;;;5008516;28;20465;-73
2021/10/24 02:17:31;;;;;;;11.45;8.23;;;5.50;86.50;;;;;;5005726;28;20064;-73
2021/10/24 02:19:57;;;;;;;11.43;8.50;;;5.50;86.70;;;;;;5007995;28;20046;-72
2021/10/24 02:22:23;;;;;;;10.93;8.10;;;5.50;86.70;;;;;;4998823;28;20045;-73
2021/10/24 02:24:49;;;;;;;11.73;8.73;;;5.40;86.70;;;;;;5004843;28;20049;-73
2021/10/24 02:27:15;;;;;;;11.85;8.25;;;5.40;86.70;;;;;;5001869;28;20106;-72
2021/10/24 02:29:40;;;;;;;11.93;8.27;;;5.40;86.80;;;;;;5009402;28;20026;-73
2021/10/24 02:32:06;;;;;;;12.40;8.38;;;5.30;86.70;;;;;;5006070;28;20088;-73
2021/10/24 02:34:32;;;;;;;13.82;8.82;;;5.30;86.80;;;;;;5005778;28;20102;-72
2021/10/24 02:36:58;;;;;;;13.15;9.65;;;5.30;86.60;;;;;;5004432;28;20044;-73
2021/10/24 02:39:23;;;;;;;12.73;9.65;;;5.20;86.60;;;;;;5005039;28;20653;-74
2021/10/24 02:41:50;;;;;;;13.45;9.20;;;5.20;86.70;;;;;;5005399;28;20453;-74
2021/10/24 02:44:15;;;;;;;16.27;9.52;;;5.20;86.80;;;;;;5007554;28;20037;-73
2021/10/24 02:46:41;;;;;;;12.73;9.50;;;5.10;86.80;;;;;;5010680;28;20046;-75
2021/10/24 02:49:07;;;;;;;12.30;8.80;;;5.10;86.80;;;;;;5007267;28;20069;-72
2021/10/24 02:51:33;;;;;;;13.00;9.23;;;5.10;86.90;;;;;;5007364;28;20068;-72
2021/10/24 02:53:58;;;;;;;12.02;8.70;;;5.10;86.80;;;;;;5007479;28;20030;-72
2021/10/24 02:56:25;;;;;;;12.40;8.90;;;5.10;86.90;;;;;;5006683;28;20030;-73
2021/10/24 02:58:50;;;;;;;12.88;9.60;;;5.10;86.90;;;;;;5016450;28;20080;-73
2021/10/24 03:01:16;;;;;;;12.63;9.00;;;5.00;86.80;;;;;;5008087;28;20038;-76
2021/10/24 03:03:42;;;;;;;12.73;9.88;;;5.10;86.80;;;;;;5009110;28;20046;-74
2021/10/24 03:06:08;;;;;;;13.85;10.50;;;5.00;86.80;;;;;;5007349;28;20037;-72
2021/10/24 03:08:34;;;;;;;14.45;10.43;;;5.00;86.80;;;;;;5006024;28;20033;-72
2021/10/24 03:10:59;;;;;;;14.90;9.73;;;5.00;86.90;;;;;;5008241;28;20049;-74
2021/10/24 03:13:25;;;;;;;12.38;9.80;;;4.90;87.00;;;;;;5001424;28;20487;-73
2021/10/24 03:15:53;;;;;;;13.75;9.38;;;4.90;87.00;;;;;;5005772;28;20044;-73
2021/10/24 03:18:19;;;;;;;12.90;9.27;;;4.90;87.00;;;;;;5006284;28;20057;-76
2021/10/24 03:20:45;;;;;;;12.63;9.65;;;4.80;86.90;;;;;;5011330;28;20049;-73
2021/10/24 03:23:10;;;;;;;12.55;9.93;;;4.90;87.00;;;;;;5017728;28;20417;-77
2021/10/24 03:25:36;;;;;;;13.55;9.48;;;4.80;87.10;;;;;;5007545;28;20030;-72
2021/10/24 03:28:02;;;;;;;12.45;9.20;;;4.80;87.10;;;;;;5005425;28;20038;-72
2021/10/24 03:30:28;;;;;;;12.52;9.77;;;4.80;87.10;;;;;;5006806;28;20404;-72
2021/10/24 03:32:53;;;;;;;14.35;10.27;;;4.80;87.00;;;;;;5007952;28;20420;-73
2021/10/24 03:35:19;;;;;;;14.35;10.40;;;4.80;87.00;;;;;;5006840;28;20032;-75
2021/10/24 03:37:45;;;;;;;14.73;10.40;;;4.80;87.00;;;;;;5001808;28;20520;-72
2021/10/24 03:40:11;;;;;;;15.57;10.88;;;4.80;87.10;;;;;;5005609;28;20483;-74
2021/10/24 03:42:36;;;;;;;12.93;10.82;;;4.80;87.20;;;;;;5008769;28;20125;-73
2021/10/24 03:45:03;;;;;;;13.93;10.75;;;4.80;87.40;;;;;;5008649;28;20039;-75
2021/10/24 03:47:29;;;;;;;14.93;11.75;;;4.80;87.40;;;;;;5008031;28;20034;-76
2021/10/24 03:49:55;;;;;;;13.07;10.35;;;4.70;87.50;;;;;;5010216;28;20030;-78
2021/10/24 03:52:20;;;;;;;15.27;11.25;;;4.70;87.60;;;;;;5006855;28;20066;-72
2021/10/24 03:54:46;;;;;;;15.00;10.63;;;4.70;87.60;;;;;;5010246;28;20030;-73
2021/10/24 03:57:12;;;;;;;15.07;10.90;;;4.60;87.60;;;;;;5004817;28;20088;-73
2021/10/24 03:59:37;;;;;;;15.57;11.13;;;4.60;87.70;;;;;;5014638;28;20360;-75
2021/10/24 04:02:03;;;;;;;15.18;11.40;;;4.70;87.80;;;;;;5004838;28;20041;-73
2021/10/24 04:04:29;;;;;;;14.60;11.55;;;4.70;87.90;;;;;;5005625;28;20073;-73
2021/10/24 04:06:55;;;;;;;14.90;11.30;;;4.70;87.90;;;;;;5008772;28;20460;-73
2021/10/24 04:09:20;;;;;;;14.40;10.48;;;4.60;87.90;;;;;;5009184;28;20042;-73
2021/10/24 04:11:47;;;;;;;14.35;11.27;;;4.60;88.00;;;;;;5006279;28;20061;-74
2021/10/24 04:14:13;;;;;;;13.60;10.63;;;4.60;88.10;;;;;;4999814;28;20105;-77
2021/10/24 04:16:38;;;;;;;13.55;10.27;;;4.60;87.80;;;;;;5004724;28;20046;-73
2021/10/24 04:19:04;;;;;;;15.18;10.63;;;4.60;87.70;;;;;;5008572;28;20033;-73
2021/10/24 04:21:30;;;;;;;15.60;11.20;;;4.60;87.60;;;;;;5006778;28;20034;-73
2021/10/24 04:23:56;;;;;;;15.52;11.35;;;4.60;87.70;;;;;;5006721;28;20064;-74
2021/10/24 04:26:22;;;;;;;14.18;10.68;;;4.50;87.80;;;;;;5006015;28;20026;-75
2021/10/24 04:28:47;;;;;;;13.85;10.60;;;4.50;87.90;;;;;;5010045;28;20042;-74
2021/10/24 04:31:13;;;;;;;13.98;10.65;;;4.40;88.00;;;;;;5003945;28;20035;-73
2021/10/24 04:33:39;;;;;;;14.90;10.85;;;4.50;88.10;;;;;;5006546;28;20037;-73
2021/10/24 04:36:04;;;;;;;15.52;10.52;;;4.40;88.10;;;;;;5002685;28;20026;-73
2021/10/24 04:38:31;;;;;;;15.27;11.32;;;4.40;88.10;;;;;;5009958;28;20037;-73
2021/10/24 04:40:57;;;;;;;16.38;11.75;;;4.40;88.10;;;;;;5004903;28;20042;-76
2021/10/24 04:43:23;;;;;;;16.17;11.93;;;4.40;88.20;;;;;;5008909;28;20029;-73
2021/10/24 04:45:49;;;;;;;13.55;10.70;;;4.40;88.30;;;;;;5004549;28;20207;-73
2021/10/24 04:48:14;;;;;;;13.98;10.98;;;4.40;88.30;;;;;;5007766;28;20038;-74
2021/10/24 04:50:41;;;;;;;15.95;11.57;;;4.30;88.30;;;;;;5009838;28;20061;-74
2021/10/24 04:53:08;;;;;;;15.90;10.85;;;4.40;88.40;;;;;;5018465;28;20050;-75
2021/10/24 04:55:35;;;;;;;14.95;11.52;;;4.40;88.40;;;;;;5003934;28;20034;-76
2021/10/24 04:58:02;;;;;;;15.88;11.25;;;4.40;88.40;;;;;;5007472;28;20034;-74
2021/10/24 05:00:28;;;;;;;15.82;11.00;;;4.40;88.50;;;;;;5012689;28;20045;-73
2021/10/24 05:02:53;;;;;;;14.95;10.75;;;4.40;88.60;;;;;;5007322;28;20058;-74
2021/10/24 05:05:19;;;;;;;15.05;11.27;;;4.40;88.60;;;;;;5001398;28;20030;-73
2021/10/24 05:07:45;;;;;;;16.88;11.48;;;4.50;88.60;;;;;;5007509;28;20092;-74
2021/10/24 05:10:11;;;;;;;14.13;10.90;;;4.50;88.70;;;;;;5009079;28;20487;-74
2021/10/24 05:12:36;;;;;;;15.52;11.82;;;4.50;88.80;;;;;;5007272;28;20107;-74
2021/10/24 05:15:04;;;;;;;14.23;11.02;;;4.60;89.20;;;;;;5009064;28;20038;-73
2021/10/24 05:17:30;;;;;;;18.52;11.82;;;4.60;89.40;;;;;;5004899;28;20104;-74
2021/10/24 05:19:55;;;;;;;20.27;13.15;;;4.70;89.60;;;;;;5009173;28;20469;-75
2021/10/24 05:22:21;;;;;;;16.60;12.10;;;4.80;89.60;;;;;;5006102;28;20038;-73
2021/10/24 05:24:47;;;;;;;16.95;12.27;;;4.80;89.80;;;;;;5010061;28;20406;-73
2021/10/24 05:27:13;;;;;;;15.95;12.43;;;4.80;89.80;;;;;;5024128;28;20065;-74
2021/10/24 05:29:39;;;;;;;15.13;12.30;;;4.80;89.80;;;;;;5007428;28;20021;-73
2021/10/24 05:32:04;;;;;;;18.95;12.23;;;4.90;90.00;;;;;;5006987;28;20525;-73
2021/10/24 05:34:30;;;;;;;17.75;13.35;;;5.00;90.00;;;;;;5010529;28;20048;-78
2021/10/24 05:36:56;;;;;;;16.98;11.93;;;5.10;89.90;;;;;;5012091;28;20034;-73
2021/10/24 05:39:22;;;;;;;15.10;11.20;;;5.10;89.80;;;;;;4961800;28;1257165;-73
2021/10/24 05:41:48;;;;;;;19.63;13.27;;;5.10;89.70;;;;;;5008220;28;20278;-73
2021/10/24 05:44:19;;;;;;;17.13;12.15;;;5.20;89.50;;;;;;5009934;28;20056;-73
2021/10/24 05:46:46;;;;;;;14.50;11.27;;;5.30;89.40;;;;;;5006448;28;20034;-73
2021/10/24 05:49:11;;;;;;;17.25;11.75;;;5.30;89.10;;;;;;5006358;28;20405;-73
2021/10/24 05:51:37;;;;;;;17.95;11.75;;;5.30;88.90;;;;;;5008133;28;20041;-77
2021/10/24 05:54:03;;;;;;;15.75;11.40;;;5.30;88.80;;;;;;5007004;28;20117;-73
2021/10/24 05:56:28;;;;;;;15.93;11.02;;;5.30;88.70;;;;;;5010097;28;20349;-73
2021/10/24 05:58:54;;;;;;;17.23;11.02;;;5.40;88.60;;;;;;5010532;28;20033;-74
2021/10/24 06:01:20;;;;;;;17.08;11.18;;;5.40;88.60;;;;;;5006771;28;20034;-74
2021/10/24 06:03:45;;;;;;;18.98;11.93;;;5.40;88.60;;;;;;5010334;28;20080;-73
2021/10/24 06:06:11;;;;;;;19.60;11.20;;;5.40;88.50;;;;;;5009845;28;20092;-73
2021/10/24 06:08:37;;;;;;;15.25;10.88;;;5.40;88.50;;;;;;5009919;28;20070;-73
2021/10/24 06:11:26;;;;;;;16.02;11.30;;;5.40;88.30;;;;;;5011458;28;20033;-73
2021/10/24 06:13:52;;;;;;;15.13;10.65;;;5.40;88.50;;;;;;5008542;28;20042;-73
2021/10/24 06:16:18;;;;;;;15.05;11.35;;;5.40;88.40;;;;;;5008991;28;20030;-74
2021/10/24 06:18:44;;;;;;;18.08;11.75;;;5.40;88.50;;;;;;5006919;28;20041;-74
2021/10/24 06:21:10;;;;;;;16.13;11.25;;;5.50;88.40;;;;;;5005136;28;20392;-73
2021/10/24 06:23:36;;;;;;;16.13;10.48;;;5.40;88.40;;;;;;5004976;28;20469;-73
2021/10/24 06:26:01;;;;;;;19.73;11.27;;;5.50;88.40;;;;;;5005009;28;20030;-73
2021/10/24 06:28:27;;;;;;;18.95;13.00;;;5.50;88.30;;;;;;5007787;28;20408;-74
2021/10/24 06:30:53;;;;;;;16.45;11.52;;;5.60;88.40;;;;;;5001567;28;20151;-73
2021/10/24 06:33:19;;;;;;;21.40;12.38;;;5.60;88.30;;;;;;5000806;28;20077;-73
2021/10/24 06:35:45;;;;;;;14.90;10.80;;;5.60;88.20;;;;;;4998172;28;20033;-74
2021/10/24 06:38:11;;;;;;;18.02;11.57;;;5.60;88.10;;;;;;5003030;28;20050;-75
2021/10/24 06:40:38;;;;;;;16.58;10.60;;;5.60;88.00;;;;;;5002414;28;20469;-73
2021/10/24 06:43:03;;;;;;;17.80;11.82;;;5.70;88.00;;;;;;5005781;28;20033;-75
2021/10/24 06:45:31;;;;;;;17.23;11.27;;;5.70;87.90;;;;;;5001778;28;20113;-74
2021/10/24 06:47:56;;;;;;;15.68;11.18;;;5.70;87.80;;;;;;5005357;28;20042;-73
2021/10/24 06:50:22;;;;;;;17.50;11.13;;;5.80;87.60;;;;;;5002541;28;20042;-77
2021/10/24 06:52:48;;;;;;;17.13;11.23;;;5.80;87.60;;;;;;5002160;28;20096;-73
2021/10/24 06:55:14;;;;;;;15.98;10.70;;;5.80;87.60;;;;;;5000887;28;20038;-74
2021/10/24 06:57:52;;;;;;;16.33;11.45;;;5.80;87.60;;;;;;5000118;28;20095;-73
2021/10/24 07:00:22;;;;;;;16.50;11.20;;;5.70;87.70;;;;;;5003169;28;20057;-75
2021/10/24 07:02:49;;;;;;;15.73;11.32;;;5.70;87.70;;;;;;5005310;28;20034;-73
2021/10/24 07:05:15;;;;;;;19.25;12.00;;;5.70;87.70;;;;;;5016073;28;20068;-74
2021/10/24 07:07:41;;;;;;;16.67;10.70;;;5.70;87.80;;;;;;5001522;28;20211;-73
2021/10/24 07:10:08;;;;;;;18.35;10.82;;;5.80;87.80;;;;;;5007696;28;20044;-73
2021/10/24 07:12:35;;;;;;;17.80;11.98;;;5.80;87.80;;;;;;5001843;28;20038;-75
2021/10/24 07:15:02;;;;;;;18.00;12.05;;;5.90;87.90;;;;;;5005904;28;20062;-73
2021/10/24 07:17:28;;;;;;;18.80;12.77;;;6.00;87.90;;;;;;5003420;28;20038;-72
2021/10/24 07:19:53;;;;;;;15.70;11.95;;;6.10;87.60;;;;;;4995371;28;20026;-75
2021/10/24 07:22:19;;;;;;;19.00;12.30;;;6.10;87.40;;;;;;5003670;28;20523;-72
2021/10/24 07:24:45;;;;;;;16.73;11.88;;;6.10;87.40;;;;;;4997050;28;20128;-74
2021/10/24 07:27:10;;;;;;;20.73;12.25;;;6.20;87.30;;;;;;5001979;28;20045;-73
2021/10/24 07:29:36;;;;;;;19.60;12.55;;;6.30;87.10;;;;;;4999821;28;20437;-71
2021/10/24 07:32:02;;;;;;;18.98;13.07;;;6.30;87.10;;;;;;4995409;28;20038;-70
2021/10/24 07:34:28;;;;;;;18.95;11.80;;;6.30;87.10;;;;;;5003353;28;20038;-71
2021/10/24 07:36:53;;;;;;;31.92;16.52;;;6.30;87.00;;;;;;5000908;28;20030;-69
2021/10/24 07:39:19;;;;;;;23.02;13.02;;;6.40;86.90;;;;;;5000916;28;20083;-70
2021/10/24 07:41:46;;;;;;;36.15;15.25;;;6.50;86.90;;;;;;4999800;28;20034;-70
2021/10/24 07:44:13;;;;;;;32.20;15.43;;;6.50;86.80;;;;;;5017770;28;20187;-70
2021/10/24 07:46:39;;;;;;;27.73;14.40;;;6.50;86.90;;;;;;5002830;28;20032;-72
2021/10/24 07:49:05;;;;;;;35.28;18.02;;;6.60;87.00;;;;;;4998534;28;20149;-73
2021/10/24 07:51:31;;;;;;;30.20;16.17;;;6.60;86.90;;;;;;5002088;28;20516;-71
2021/10/24 07:53:57;;;;;;;22.67;13.70;;;6.70;86.90;;;;;;4997559;28;20533;-71
2021/10/24 07:56:23;;;;;;;23.52;14.85;;;6.80;86.70;;;;;;4995998;28;20395;-71
2021/10/24 07:58:48;;;;;;;17.40;10.98;;;6.90;86.30;;;;;;5005794;28;20386;-74
2021/10/24 08:01:16;;;;;;;28.55;15.00;;;7.00;86.20;;;;;;4995746;28;20045;-70
2021/10/24 08:03:42;;;;;;;18.70;11.35;;;7.10;86.10;;;;;;4999609;28;20068;-71
2021/10/24 08:06:08;;;;;;;23.05;12.65;;;7.20;85.70;;;;;;4996592;28;21057;-71
2021/10/24 08:08:37;;;;;;;18.80;10.70;;;7.40;85.00;;;;;;4998213;28;20466;-73
2021/10/24 08:11:03;;;;;;;19.95;11.48;;;7.50;84.60;;;;;;4999557;28;20105;-70
2021/10/24 08:13:29;;;;;;;18.48;11.27;;;7.70;83.80;;;;;;5000427;28;20053;-72
2021/10/24 08:15:55;;;;;;;22.35;12.57;;;7.90;83.60;;;;;;5000267;28;20030;-72
2021/10/24 08:18:21;;;;;;;18.10;11.82;;;8.00;83.00;;;;;;4995721;28;20045;-69
2021/10/24 08:20:47;;;;;;;19.15;11.77;;;8.20;82.50;;;;;;4995664;28;20038;-71
2021/10/24 08:23:17;;;;;;;15.90;10.48;;;8.40;82.00;;;;;;5007379;28;20042;-69
2021/10/24 08:25:43;;;;;;;18.48;11.15;;;8.60;81.40;;;;;;4993635;28;20034;-69
2021/10/24 08:28:08;;;;;;;16.65;10.25;;;8.70;80.60;;;;;;4996501;28;20120;-72
2021/10/24 08:30:38;;;;;;;15.32;9.88;;;8.90;80.10;;;;;;4992972;28;20478;-72
2021/10/24 08:33:03;;;;;;;16.88;9.93;;;9.10;79.50;;;;;;4994413;28;20117;-73
2021/10/24 08:35:30;;;;;;;15.50;8.93;;;9.30;78.50;;;;;;4992152;28;20428;-72
2021/10/24 08:37:56;;;;;;;15.35;9.68;;;9.60;77.60;;;;;;4995867;28;20400;-70
2021/10/24 08:40:22;;;;;;;16.95;10.77;;;9.70;76.70;;;;;;4991859;28;20122;-71
2021/10/24 08:42:52;;;;;;;16.23;9.48;;;9.80;76.60;;;;;;4990335;28;20047;-70
2021/10/24 08:45:18;;;;;;;21.52;10.77;;;10.00;76.00;;;;;;4992315;28;21631;-69
2021/10/24 08:47:44;;;;;;;15.45;10.55;;;10.10;76.00;;;;;;4993018;28;20753;-69
2021/10/24 08:50:11;;;;;;;13.35;8.13;;;10.30;74.40;;;;;;4992238;28;20038;-69
2021/10/24 08:52:39;;;;;;;15.80;9.40;;;10.50;74.30;;;;;;4998619;28;20042;-71
2021/10/24 08:55:07;;;;;;;13.45;8.63;;;10.60;73.30;;;;;;4996016;28;20030;-71
2021/10/24 08:57:33;;;;;;;15.40;9.27;;;10.60;73.10;;;;;;4993777;28;20076;-73
2021/10/24 08:59:59;;;;;;;14.07;8.98;;;10.60;72.80;;;;;;4994071;28;20120;-69
2021/10/24 09:02:25;;;;;;;16.13;9.43;;;10.80;73.00;;;;;;4995686;28;20397;-70
2021/10/24 09:04:52;;;;;;;16.35;9.23;;;10.80;72.70;;;;;;4995937;28;20049;-69
2021/10/24 09:07:22;;;;;;;15.10;9.52;;;10.90;72.80;;;;;;4990261;28;20049;-70
2021/10/24 09:09:49;;;;;;;14.63;9.48;;;11.00;72.40;;;;;;4995454;28;20430;-70
2021/10/24 09:12:17;;;;;;;15.82;9.30;;;11.10;72.40;;;;;;4996034;28;20038;-72
2021/10/24 09:14:51;;;;;;;16.52;8.95;;;11.10;72.10;;;;;;4997354;28;20045;-72
2021/10/24 09:17:26;;;;;;;14.48;8.75;;;11.30;71.20;;;;;;4993138;28;20076;-70
2021/10/24 09:19:56;;;;;;;;;;;11.30;70.40;;;;;;4993251;28;20053;-73
2021/10/24 09:22:34;;;;;;;16.17;8.75;;;11.40;70.50;;;;;;4994484;28;19975;-69
2021/10/24 09:25:20;;;;;;;15.52;8.93;;;11.50;69.70;;;;;;4998528;28;20414;-72
2021/10/24 09:28:04;;;;;;;16.13;8.75;;;11.60;70.40;;;;;;4997499;28;20058;-70
2021/10/24 09:30:36;;;;;;;16.90;8.93;;;11.70;69.10;;;;;;4994566;28;20115;-72
2021/10/24 09:33:10;;;;;;;15.95;9.48;;;11.70;69.30;;;;;;4995714;28;20277;-75
2021/10/24 09:35:36;;;;;;;14.47;9.23;;;11.80;70.20;;;;;;4994272;28;20690;-71
2021/10/24 09:38:04;;;;;;;15.55;9.10;;;11.80;69.40;;;;;;4999731;28;20045;-72
2021/10/24 09:40:33;;;;;;;13.77;9.27;;;12.00;69.50;;;;;;4996522;28;20049;-70
2021/10/24 09:43:18;;;;;;;15.00;9.15;;;11.90;69.60;;;;;;5001588;28;21116;-71
2021/10/24 09:45:49;;;;;;;14.82;9.40;;;11.90;69.30;;;;;;4993582;28;20030;-69
2021/10/24 09:48:17;;;;;;;15.30;9.25;;;12.10;68.80;;;;;;5006136;28;20066;-70
2021/10/24 09:50:51;;;;;;;15.75;8.95;;;12.00;69.40;;;;;;4994788;28;20083;-70
2021/10/24 09:53:25;;;;;;;14.38;9.30;;;12.10;69.00;;;;;;5009042;28;20044;-71
2021/10/24 09:55:53;;;;;;;12.35;8.68;;;12.20;68.50;;;;;;4996368;28;20067;-73
2021/10/24 09:58:20;;;;;;;13.95;9.00;;;12.10;67.50;;;;;;4996140;28;20042;-71
2021/10/24 10:00:46;;;;;;;12.88;8.30;;;12.20;68.00;;;;;;5001737;28;20030;-70
2021/10/24 10:03:13;;;;;;;15.45;8.90;;;12.30;68.30;;;;;;4997588;28;20722;-72
2021/10/24 10:05:40;;;;;;;14.25;8.88;;;12.40;67.70;;;;;;4998183;28;20063;-75
2021/10/24 10:08:14;;;;;;;13.60;8.55;;;12.50;67.60;;;;;;4996568;28;20030;-74
2021/10/24 10:10:47;;;;;;;12.30;8.35;;;12.60;67.40;;;;;;4998723;28;20432;-73
2021/10/24 10:13:18;;;;;;;15.07;8.25;;;12.70;67.30;;;;;;4995761;28;20043;-70
2021/10/24 10:15:47;;;;;;;15.77;9.10;;;12.80;66.30;;;;;;4995674;28;20034;-70
2021/10/24 10:18:13;;;;;;;11.88;7.95;;;12.80;66.30;;;;;;4999601;28;20050;-69
2021/10/24 10:20:47;;;;;;;11.38;7.22;;;12.90;67.20;;;;;;4990824;28;20038;-72
2021/10/24 10:23:15;;;;;;;11.85;7.70;;;13.10;66.10;;;;;;5005945;28;20038;-70
2021/10/24 10:25:43;;;;;;;11.90;7.43;;;13.20;66.10;;;;;;4994644;28;20037;-73
2021/10/24 10:28:13;;;;;;;11.15;6.63;;;13.40;65.80;;;;;;4993837;28;20038;-70
2021/10/24 10:30:42;;;;;;;10.15;6.43;;;13.60;65.30;;;;;;4994296;28;20042;-72
2021/10/24 10:33:31;;;;;;;12.25;7.25;;;13.60;64.10;;;;;;4994755;28;20041;-70
2021/10/24 10:35:59;;;;;;;10.82;7.03;;;13.60;64.20;;;;;;5000456;28;20022;-72
2021/10/24 10:38:37;;;;;;;10.07;6.43;;;13.60;65.10;;;;;;5000146;28;20120;-71
2021/10/24 10:41:03;;;;;;;10.82;6.03;;;13.60;63.70;;;;;;5014315;28;20042;-70
2021/10/24 10:43:29;;;;;;;11.32;6.15;;;13.70;63.90;;;;;;4996300;28;20156;-72
2021/10/24 10:45:58;;;;;;;10.27;5.63;;;13.70;63.30;;;;;;4998667;28;20034;-71
2021/10/24 10:48:29;;;;;;;9.77;5.85;;;13.60;62.10;;;;;;5011509;28;20072;-70
2021/10/24 10:50:55;;;;;;;9.27;5.65;;;13.70;64.00;;;;;;4995983;28;20483;-73
2021/10/24 10:53:30;;;;;;;9.65;5.60;;;13.70;62.70;;;;;;4997122;28;20454;-72
2021/10/24 10:55:55;;;;;;;9.25;6.18;;;13.80;63.00;;;;;;4998036;28;20052;-70
2021/10/24 10:58:41;;;;;;;10.15;5.63;;;13.80;62.40;;;;;;4998377;28;20042;-72
2021/10/24 11:01:24;;;;;;;10.32;5.88;;;13.90;63.00;;;;;;4998925;28;20156;-73
2021/10/24 11:03:53;;;;;;;10.32;6.00;;;13.90;62.70;;;;;;5000161;28;20148;-72
2021/10/24 11:06:28;;;;;;;8.93;5.68;;;14.00;62.40;;;;;;5007067;28;20384;-72
2021/10/24 11:08:58;;;;;;;11.32;6.05;;;13.90;62.30;;;;;;5001080;28;20049;-72
2021/10/24 11:11:40;;;;;;;10.60;5.10;;;14.00;61.50;;;;;;4994048;28;20049;-73
2021/10/24 11:14:12;;;;;;;11.25;6.00;;;13.80;61.40;;;;;;4994798;28;20045;-71
2021/10/24 11:16:55;;;;;;;10.55;5.22;;;13.80;61.80;;;;;;4997263;28;20099;-70
2021/10/24 11:19:28;;;;;;;12.50;5.60;;;13.70;61.60;;;;;;4997593;28;20049;-70
2021/10/24 11:22:00;;;;;;;9.95;5.80;;;13.70;62.10;;;;;;4998351;28;20462;-71
2021/10/24 11:24:27;;;;;;;11.65;5.68;;;13.80;62.10;;;;;;4994669;28;20100;-75
2021/10/24 11:26:56;;;;;;;10.40;5.82;;;13.80;62.10;;;;;;4994004;28;20030;-73
2021/10/24 11:29:22;;;;;;;9.90;5.50;;;14.00;62.50;;;;;;4996240;28;20032;-73
2021/10/24 11:31:48;;;;;;;9.60;5.85;;;14.00;63.20;;;;;;4996891;28;20025;-75
2021/10/24 11:34:33;;;;;;;8.95;5.57;;;14.10;62.00;;;;;;4996656;28;20487;-72
2021/10/24 11:36:58;;;;;;;8.70;5.88;;;14.10;62.40;;;;;;4995811;28;20325;-72
2021/10/24 11:39:24;;;;;;;8.52;5.45;;;14.10;61.10;;;;;;4993969;28;20481;-70
2021/10/24 11:42:05;;;;;;;11.25;5.90;;;14.10;60.60;;;;;;4998283;28;20079;-71
2021/10/24 11:44:31;;;;;;;9.50;5.57;;;14.10;61.10;;;;;;4996861;28;20025;-70
2021/10/24 11:47:14;;;;;;;11.52;5.85;;;14.10;62.00;;;;;;4995646;28;20042;-70
2021/10/24 11:49:51;;;;;;;9.65;5.95;;;14.20;61.90;;;;;;4996490;28;20465;-70
2021/10/24 11:52:29;;;;;;;9.70;5.88;;;14.30;61.20;;;;;;4994975;28;20026;-70
2021/10/24 11:55:10;;;;;;;10.25;5.93;;;14.40;61.00;;;;;;4996151;28;20038;-70
2021/10/24 12:03:21;;;;;;;9.80;6.20;;;14.60;61.50;;;;;;5009464;28;20533;-70
2021/10/24 12:05:47;;;;;;;9.68;5.72;;;14.60;60.30;;;;;;5005215;28;20030;-71
2021/10/24 12:08:14;;;;;;;9.90;5.97;;;14.40;60.30;;;;;;5008241;28;20461;-71
2021/10/24 12:10:48;;;;;;;14.60;6.40;;;14.60;60.60;;;;;;5006109;28;20146;-72
2021/10/24 12:13:31;;;;;;;9.23;5.95;;;14.50;60.10;;;;;;5016581;28;20361;-71
2021/10/24 12:15:58;;;;;;;9.80;5.55;;;14.50;60.90;;;;;;5007214;28;20046;-71
2021/10/24 12:18:33;;;;;;;9.88;6.20;;;14.40;60.10;;;;;;5009006;28;20033;-71
2021/10/24 12:21:02;;;;;;;10.63;5.97;;;14.40;61.00;;;;;;5006672;28;20034;-70
2021/10/24 12:23:31;;;;;;;10.77;5.97;;;14.40;60.80;;;;;;5019668;28;20045;-70
2021/10/24 12:25:58;;;;;;;9.60;5.50;;;14.40;61.30;;;;;;5011601;28;20405;-72
2021/10/24 12:28:37;;;;;;;9.30;5.47;;;14.30;62.20;;;;;;5009608;28;20033;-71
2021/10/24 12:31:02;;;;;;;10.40;6.22;;;14.40;61.40;;;;;;5005735;28;20349;-71
2021/10/24 12:33:29;;;;;;;9.45;5.65;;;14.40;60.80;;;;;;5002794;28;20109;-71
2021/10/24 12:35:59;;;;;;;10.45;6.03;;;14.50;60.40;;;;;;5005614;28;20042;-70
2021/10/24 12:38:48;;;;;;;11.43;5.50;;;14.60;60.10;;;;;;5004346;28;20169;-70
2021/10/24 12:41:20;;;;;;;10.65;5.13;;;14.60;59.70;;;;;;5001775;28;20038;-71
2021/10/24 12:43:50;;;;;;;7.22;4.60;;;14.60;59.90;;;;;;5008794;28;20480;-71
2021/10/24 12:46:27;;;;;;;11.30;5.40;;;14.60;60.00;;;;;;5005440;28;20161;-72
2021/10/24 12:48:53;;;;;;;9.07;5.07;;;14.80;61.70;;;;;;5000893;28;20492;-71